Time;durP1;ratioP1;P1;durP2;ratioP2;P2;SDS_P1;SDS_P2;PMS_P1;PMS_P2;Temp;Humidity;BMP_temperature;BMP_pressure;BME280_temperature;BME280_humidity;BME280_pressure;Samples;Min_cycle;Max_cycle;Signal;HPM_P1;HPM_P2
2024/01/02 00:00:30;;;;;;;5.37;4.97;;;8.60;21.70;;;;;;5012623;28;20188;-52
2024/01/02 00:02:56;;;;;;;8.00;7.50;;;8.60;22.00;;;;;;5012562;28;20184;-51
2024/01/02 00:05:22;;;;;;;5.90;5.40;;;8.60;22.40;;;;;;5013126;28;20659;-50
2024/01/02 00:07:47;;;;;;;7.20;6.70;;;8.60;22.20;;;;;;5013389;28;20185;-49
2024/01/02 00:10:15;;;;;;;6.07;5.67;;;8.70;22.10;;;;;;5011700;28;20706;-51
2024/01/02 00:12:40;;;;;;;6.87;6.47;;;8.70;22.20;;;;;;5013129;28;20180;-47
2024/01/02 00:15:07;;;;;;;5.67;5.27;;;8.70;22.50;;;;;;5013062;28;20427;-49
2024/01/02 00:17:33;;;;;;;4.93;4.70;;;8.60;22.20;;;;;;5012502;28;20187;-51
2024/01/02 00:19:58;;;;;;;5.30;5.00;;;8.60;22.20;;;;;;5012570;28;20420;-49
2024/01/02 00:22:24;;;;;;;5.27;5.00;;;8.60;22.30;;;;;;5012043;28;20531;-48
2024/01/02 00:24:50;;;;;;;6.53;6.23;;;8.60;22.40;;;;;;5002623;28;20293;-51
2024/01/02 00:27:15;;;;;;;5.20;5.00;;;8.60;22.90;;;;;;5004589;28;20235;-50
2024/01/02 00:29:41;;;;;;;6.33;5.73;;;8.60;23.20;;;;;;5012877;28;20208;-60
2024/01/02 00:32:06;;;;;;;5.73;5.33;;;8.70;22.60;;;;;;5011083;28;20177;-60
2024/01/02 00:34:32;;;;;;;6.27;5.87;;;8.70;22.70;;;;;;5012722;28;20176;-60
2024/01/02 00:36:57;;;;;;;6.27;5.87;;;8.70;22.60;;;;;;5013019;28;20358;-60
2024/01/02 00:39:23;;;;;;;5.43;5.13;;;8.70;22.70;;;;;;5014753;28;20274;-49
2024/01/02 00:41:49;;;;;;;5.33;5.03;;;8.60;23.00;;;;;;5016162;28;20191;-50
2024/01/02 00:44:15;;;;;;;5.37;4.93;;;8.60;23.00;;;;;;5016552;28;20188;-49
2024/01/02 00:46:41;;;;;;;5.77;5.37;;;8.60;23.00;;;;;;5016198;28;20427;-50
2024/01/02 00:49:07;;;;;;;5.00;4.80;;;8.50;23.00;;;;;;5016399;28;20473;-48
2024/01/02 00:51:32;;;;;;;7.30;6.90;;;8.50;23.00;;;;;;5016023;28;20204;-48
2024/01/02 00:53:59;;;;;;;5.20;4.90;;;8.60;23.30;;;;;;5016063;28;20188;-50
2024/01/02 00:56:24;;;;;;;6.00;5.60;;;8.60;23.00;;;;;;5016446;28;20440;-53
2024/01/02 00:58:50;;;;;;;5.47;5.27;;;8.70;23.10;;;;;;5016606;28;20455;-51
2024/01/02 01:01:19;;;;;;;6.23;5.87;;;8.60;23.00;;;;;;5015198;28;20181;-50
2024/01/02 01:03:46;;;;;;;7.23;6.70;;;8.60;23.00;;;;;;5034275;28;20514;-52
2024/01/02 01:06:12;;;;;;;5.30;5.07;;;8.60;23.00;;;;;;5016434;28;20446;-48
2024/01/02 01:08:37;;;;;;;6.13;5.73;;;8.60;23.00;;;;;;5015762;28;20454;-50
2024/01/02 01:11:03;;;;;;;5.73;5.40;;;8.70;22.90;;;;;;5015751;28;20652;-48
2024/01/02 01:13:29;;;;;;;4.70;4.50;;;8.60;23.00;;;;;;5016213;28;20177;-48
2024/01/02 01:15:54;;;;;;;5.40;5.10;;;8.60;23.00;;;;;;5016038;28;20184;-51
2024/01/02 01:18:20;;;;;;;4.90;4.70;;;8.60;23.00;;;;;;5015734;28;20180;-51
2024/01/02 01:20:46;;;;;;;6.57;6.20;;;8.60;23.00;;;;;;5015462;28;20239;-53
2024/01/02 01:23:11;;;;;;;5.53;5.27;;;8.70;23.10;;;;;;4999617;28;20184;-53
2024/01/02 01:25:37;;;;;;;6.10;5.47;;;8.70;23.10;;;;;;5015573;28;20184;-48
2024/01/02 01:28:03;;;;;;;5.40;5.10;;;8.70;23.10;;;;;;5016253;28;20508;-52
2024/01/02 01:30:29;;;;;;;6.37;5.97;;;8.70;22.90;;;;;;5015157;28;20283;-48
2024/01/02 01:32:55;;;;;;;5.67;5.27;;;8.80;23.20;;;;;;5015162;28;20423;-48
2024/01/02 01:35:21;;;;;;;5.50;5.23;;;8.90;22.70;;;;;;5015568;28;20443;-49
2024/01/02 01:37:47;;;;;;;6.80;6.40;;;8.80;22.50;;;;;;5000082;28;20452;-50
2024/01/02 01:40:13;;;;;;;6.40;6.00;;;8.80;22.60;;;;;;5014282;28;20422;-52
2024/01/02 01:42:39;;;;;;;5.33;5.13;;;8.90;22.50;;;;;;5015651;28;20591;-52
2024/01/02 01:45:05;;;;;;;5.60;5.30;;;8.90;22.60;;;;;;5015885;28;20276;-48
2024/01/02 01:47:31;;;;;;;5.30;4.90;;;8.90;22.50;;;;;;5015068;28;20180;-48
2024/01/02 01:49:57;;;;;;;5.40;5.20;;;8.80;22.60;;;;;;5014439;28;20877;-47
2024/01/02 01:52:23;;;;;;;5.20;5.00;;;8.70;23.10;;;;;;5015385;28;20430;-49
2024/01/02 01:54:49;;;;;;;5.50;5.30;;;8.70;23.10;;;;;;5014890;28;20421;-48
2024/01/02 01:57:16;;;;;;;5.77;5.47;;;8.70;23.10;;;;;;5015443;28;20423;-48
2024/01/02 01:59:43;;;;;;;5.90;5.70;;;8.80;22.90;;;;;;5015502;28;20188;-50
2024/01/02 02:02:09;;;;;;;5.50;5.30;;;8.60;23.00;;;;;;5013929;28;20786;-48
2024/01/02 02:04:40;;;;;;;5.93;5.63;;;8.60;23.00;;;;;;5015433;28;20463;-50
2024/01/02 02:07:06;;;;;;;5.80;5.50;;;8.50;23.10;;;;;;5033212;28;20419;-49
2024/01/02 02:09:31;;;;;;;6.50;6.20;;;8.60;23.00;;;;;;5014162;28;20529;-48
2024/01/02 02:11:57;;;;;;;6.73;6.50;;;8.60;23.30;;;;;;5014554;28;20904;-48
2024/01/02 02:17:45;;;;;;;5.80;5.60;;;8.50;23.20;;;;;;5028924;28;20175;-51
2024/01/02 02:20:11;;;;;;;5.40;5.20;;;8.50;23.70;;;;;;5014131;28;20435;-47
2024/01/02 02:22:38;;;;;;;5.37;5.17;;;8.50;23.40;;;;;;5015066;28;20427;-51
2024/01/02 02:25:06;;;;;;;5.57;5.37;;;8.60;23.40;;;;;;5018797;28;20181;-47
2024/01/02 02:27:33;;;;;;;5.47;5.27;;;8.50;23.80;;;;;;5007005;28;20427;-50
2024/01/02 02:29:58;;;;;;;5.47;5.27;;;8.50;23.90;;;;;;5014148;28;20867;-48
2024/01/02 02:32:24;;;;;;;5.60;5.40;;;8.50;24.00;;;;;;5014573;28;20419;-49
2024/01/02 02:34:50;;;;;;;5.77;5.57;;;8.50;24.20;;;;;;5013955;28;20221;-49
2024/01/02 02:37:16;;;;;;;6.60;6.17;;;8.50;24.40;;;;;;5014690;28;20235;-47
2024/01/02 02:39:41;;;;;;;5.97;5.70;;;8.50;24.50;;;;;;5014621;28;20553;-48
2024/01/02 02:42:07;;;;;;;5.53;5.33;;;8.40;24.70;;;;;;5013282;28;20593;-51
2024/01/02 02:44:33;;;;;;;6.30;5.97;;;8.50;24.90;;;;;;5014475;28;20180;-50
2024/01/02 02:46:59;;;;;;;6.67;6.37;;;8.60;25.30;;;;;;5014524;28;20246;-51
2024/01/02 02:49:26;;;;;;;6.13;5.83;;;8.60;25.50;;;;;;5013449;28;20505;-50
2024/01/02 02:51:52;;;;;;;6.00;5.80;;;8.60;25.50;;;;;;5013652;28;20427;-49
2024/01/02 02:54:18;;;;;;;5.83;5.63;;;8.60;26.10;;;;;;5014305;28;20427;-51
2024/01/02 02:56:44;;;;;;;5.73;5.53;;;8.60;26.10;;;;;;5013569;28;20422;-49
2024/01/02 02:59:11;;;;;;;6.10;5.80;;;8.60;26.30;;;;;;5013898;28;20514;-48
2024/01/02 03:01:37;;;;;;;6.70;6.30;;;8.60;26.90;;;;;;5012845;28;20517;-48
2024/01/02 03:04:02;;;;;;;6.27;6.03;;;8.60;26.40;;;;;;5030437;28;20860;-48
2024/01/02 03:06:28;;;;;;;5.97;5.67;;;8.60;26.70;;;;;;5011269;28;20195;-50
2024/01/02 03:08:53;;;;;;;5.67;5.47;;;8.70;26.80;;;;;;5013691;28;20262;-52
2024/01/02 03:11:19;;;;;;;7.87;7.57;;;8.60;26.80;;;;;;5012420;28;20540;-48
2024/01/02 03:13:44;;;;;;;6.60;6.33;;;8.60;26.80;;;;;;5013638;28;20189;-49
2024/01/02 03:16:10;;;;;;;6.00;5.70;;;8.60;27.50;;;;;;5014234;28;20192;-48
2024/01/02 03:18:36;;;;;;;6.40;6.10;;;8.60;27.30;;;;;;5013356;28;20204;-48
2024/01/02 03:21:02;;;;;;;6.10;5.80;;;8.60;27.70;;;;;;5013244;28;20211;-48
2024/01/02 03:23:27;;;;;;;6.30;6.10;;;8.50;28.10;;;;;;5013856;28;20196;-47
2024/01/02 03:25:53;;;;;;;6.57;6.37;;;8.60;28.40;;;;;;5013024;28;20189;-49
2024/01/02 03:28:18;;;;;;;7.80;7.50;;;8.60;28.80;;;;;;5013892;28;20185;-49
2024/01/02 03:30:44;;;;;;;5.97;5.77;;;8.50;30.00;;;;;;5012946;28;20204;-47
2024/01/02 03:33:09;;;;;;;6.23;5.93;;;8.40;29.00;;;;;;5012992;28;20246;-51
2024/01/02 03:35:35;;;;;;;6.20;6.00;;;8.30;29.90;;;;;;5013733;28;20193;-47
2024/01/02 03:38:01;;;;;;;6.90;6.70;;;8.40;29.70;;;;;;5013647;28;20263;-47
2024/01/02 03:40:26;;;;;;;6.03;5.83;;;8.30;29.90;;;;;;5012338;28;20189;-48
2024/01/02 03:42:52;;;;;;;6.93;6.70;;;8.40;30.30;;;;;;5013482;28;20184;-52
2024/01/02 03:45:18;;;;;;;6.63;6.43;;;8.40;31.20;;;;;;5013505;28;20181;-48
2024/01/02 03:47:44;;;;;;;6.10;5.90;;;8.30;31.00;;;;;;5030358;28;20246;-47
2024/01/02 03:50:09;;;;;;;6.00;5.80;;;8.30;31.10;;;;;;5012810;28;20660;-50
2024/01/02 03:52:35;;;;;;;6.10;5.90;;;8.20;31.70;;;;;;5013543;28;20433;-48
2024/01/02 03:55:00;;;;;;;6.70;6.40;;;8.10;31.80;;;;;;5012758;28;20189;-48
2024/01/02 03:57:27;;;;;;;6.60;6.40;;;8.10;32.20;;;;;;5013425;28;20180;-50
2024/01/02 03:59:53;;;;;;;6.30;6.10;;;8.00;32.50;;;;;;5012664;28;20251;-49
2024/01/02 04:02:19;;;;;;;6.93;6.63;;;8.00;33.50;;;;;;5012443;28;20419;-48
2024/01/02 04:04:45;;;;;;;8.10;7.70;;;7.90;33.30;;;;;;5013331;28;20939;-49
2024/01/02 04:07:10;;;;;;;6.83;6.63;;;7.90;34.20;;;;;;4996974;28;20184;-48
2024/01/02 04:09:36;;;;;;;7.47;7.07;;;8.10;34.10;;;;;;5012325;28;20211;-46
2024/01/02 04:12:02;;;;;;;7.77;7.57;;;8.00;34.00;;;;;;5012398;28;20177;-48
2024/01/02 04:14:28;;;;;;;7.00;6.80;;;7.90;34.40;;;;;;5035908;28;20764;-49
2024/01/02 04:16:53;;;;;;;6.70;6.50;;;7.90;34.80;;;;;;5019107;28;20419;-48
2024/01/02 04:19:21;;;;;;;8.03;7.73;;;8.00;35.10;;;;;;5019191;28;20743;-53
2024/01/02 04:21:47;;;;;;;6.70;6.50;;;8.00;35.40;;;;;;5018811;28;20186;-49
2024/01/02 04:24:14;;;;;;;7.20;7.00;;;8.00;35.20;;;;;;5018895;28;20926;-46
2024/01/02 04:26:39;;;;;;;6.40;6.20;;;8.00;35.10;;;;;;5019569;28;20599;-50
2024/01/02 04:29:05;;;;;;;6.80;6.60;;;8.00;35.50;;;;;;5019694;28;20450;-50
2024/01/02 04:31:31;;;;;;;7.70;7.40;;;8.10;36.10;;;;;;5018223;28;20180;-52
2024/01/02 04:33:56;;;;;;;6.50;6.30;;;8.00;36.20;;;;;;5019320;28;20184;-48
2024/01/02 04:36:25;;;;;;;6.50;6.30;;;7.90;36.10;;;;;;5019652;28;20207;-48
2024/01/02 04:38:52;;;;;;;7.33;7.03;;;8.00;37.10;;;;;;5023081;28;20629;-51
2024/01/02 04:41:18;;;;;;;7.10;6.90;;;7.90;36.90;;;;;;5037653;28;20427;-49
2024/01/02 04:43:44;;;;;;;7.40;7.20;;;7.90;37.10;;;;;;5019772;28;20422;-50
2024/01/02 04:46:10;;;;;;;7.07;6.77;;;7.80;37.00;;;;;;5019285;28;20426;-50
2024/01/02 04:48:35;;;;;;;7.77;7.37;;;7.80;37.60;;;;;;5028220;28;20469;-49
2024/01/02 04:51:02;;;;;;;6.53;6.33;;;7.70;38.00;;;;;;5019429;28;21110;-47
2024/01/02 04:53:28;;;;;;;7.27;7.07;;;7.70;37.90;;;;;;5019135;28;20955;-48
2024/01/02 04:55:53;;;;;;;6.37;6.17;;;7.70;38.20;;;;;;5019918;28;20427;-48
2024/01/02 04:58:19;;;;;;;7.00;6.70;;;7.70;37.80;;;;;;5020252;28;20407;-48
2024/01/02 05:00:45;;;;;;;6.80;6.60;;;7.70;38.50;;;;;;5018599;28;20199;-49
2024/01/02 05:03:10;;;;;;;6.80;6.60;;;7.70;39.10;;;;;;5019998;28;20512;-47
2024/01/02 05:05:36;;;;;;;6.90;6.60;;;7.70;38.20;;;;;;5019537;28;20191;-49
2024/01/02 05:08:02;;;;;;;7.43;7.13;;;7.70;39.40;;;;;;5018632;28;20203;-47
2024/01/02 05:10:28;;;;;;;7.00;6.80;;;7.70;39.70;;;;;;5019291;28;20283;-50
2024/01/02 05:12:54;;;;;;;6.30;6.10;;;7.60;39.80;;;;;;5019696;28;20181;-48
2024/01/02 05:15:20;;;;;;;6.40;6.20;;;7.70;39.10;;;;;;5019346;28;20517;-51
2024/01/02 05:17:46;;;;;;;6.27;6.07;;;7.60;39.60;;;;;;5029415;28;20674;-48
2024/01/02 05:20:12;;;;;;;6.20;6.00;;;7.50;39.40;;;;;;5019210;28;20662;-49
2024/01/02 05:22:37;;;;;;;6.17;5.90;;;7.50;39.80;;;;;;5019272;28;20423;-60
2024/01/02 05:25:03;;;;;;;6.13;5.93;;;7.50;40.50;;;;;;5016943;28;20486;-60
2024/01/02 05:27:29;;;;;;;5.73;5.63;;;7.50;40.50;;;;;;5016661;28;20629;-59
2024/01/02 05:29:54;;;;;;;5.57;5.37;;;7.50;40.50;;;;;;5013436;28;20513;-59
2024/01/02 05:32:20;;;;;;;5.90;5.70;;;7.50;40.50;;;;;;5015986;28;20632;-58
2024/01/02 05:34:46;;;;;;;5.70;5.50;;;7.50;40.80;;;;;;5016418;28;20177;-58
2024/01/02 05:37:11;;;;;;;5.60;5.40;;;7.50;40.50;;;;;;5016566;28;20770;-58
2024/01/02 05:39:37;;;;;;;6.10;5.63;;;7.50;41.90;;;;;;5023717;28;20207;-58
2024/01/02 05:42:03;;;;;;;5.67;5.57;;;7.50;41.50;;;;;;5015813;28;20680;-59
2024/01/02 05:44:28;;;;;;;5.30;5.10;;;7.50;41.70;;;;;;5016302;28;20184;-59
2024/01/02 05:46:54;;;;;;;5.27;5.17;;;7.50;41.70;;;;;;5015787;28;20200;-58
2024/01/02 05:49:20;;;;;;;5.90;5.60;;;7.50;41.30;;;;;;5016364;28;20205;-59
2024/01/02 05:51:45;;;;;;;5.43;5.23;;;7.50;41.30;;;;;;5015372;28;20180;-58
2024/01/02 05:54:11;;;;;;;5.53;5.33;;;7.50;41.30;;;;;;5015883;28;20180;-59
2024/01/02 05:56:36;;;;;;;6.83;6.43;;;7.50;41.70;;;;;;5023002;28;20229;-59
2024/01/02 05:59:02;;;;;;;5.80;5.60;;;7.60;41.60;;;;;;5016179;28;20250;-60
2024/01/02 06:01:28;;;;;;;5.40;5.20;;;7.60;42.00;;;;;;5012393;28;20192;-60
2024/01/02 06:03:53;;;;;;;5.40;5.20;;;7.60;41.80;;;;;;5015149;28;20185;-60
2024/01/02 06:06:19;;;;;;;5.50;5.30;;;7.60;41.70;;;;;;5014984;28;20263;-59
2024/01/02 06:08:46;;;;;;;5.97;5.77;;;7.60;41.90;;;;;;5013160;28;20212;-59
2024/01/02 06:11:11;;;;;;;6.10;5.90;;;7.60;41.50;;;;;;5016462;28;20726;-60
2024/01/02 06:13:37;;;;;;;5.93;5.73;;;7.60;40.80;;;;;;5013921;28;20451;-60
2024/01/02 06:16:02;;;;;;;5.67;5.50;;;7.60;41.90;;;;;;5015643;28;20200;-60
2024/01/02 06:18:28;;;;;;;6.70;6.50;;;7.60;41.90;;;;;;5013964;28;20271;-60
2024/01/02 06:20:55;;;;;;;6.57;6.27;;;7.60;41.80;;;;;;5007870;28;20177;-60
2024/01/02 06:23:21;;;;;;;5.93;5.73;;;7.60;41.10;;;;;;5010338;28;20268;-60
2024/01/02 06:25:46;;;;;;;6.10;5.90;;;7.60;41.40;;;;;;5015022;28;20510;-59
2024/01/02 06:28:12;;;;;;;5.53;5.43;;;7.70;41.40;;;;;;5016057;28;20247;-60
2024/01/02 06:30:37;;;;;;;5.90;5.70;;;7.70;41.60;;;;;;5015414;28;20212;-60
2024/01/02 06:33:04;;;;;;;5.70;5.50;;;7.70;41.20;;;;;;5015815;28;20255;-60
2024/01/02 06:35:29;;;;;;;5.90;5.70;;;7.70;40.70;;;;;;5015804;28;20199;-60
2024/01/02 06:37:55;;;;;;;5.67;5.47;;;7.80;41.10;;;;;;5033587;28;20408;-60
2024/01/02 06:40:20;;;;;;;5.40;5.30;;;7.90;40.80;;;;;;5015391;28;20208;-59
2024/01/02 06:42:46;;;;;;;6.10;5.90;;;7.90;40.80;;;;;;5015715;28;20263;-60
2024/01/02 06:45:12;;;;;;;6.50;6.30;;;7.90;40.80;;;;;;5015761;28;20185;-60
2024/01/02 06:47:37;;;;;;;6.50;6.30;;;7.90;40.10;;;;;;5015627;28;20619;-60
2024/01/02 06:50:03;;;;;;;6.13;5.93;;;7.90;40.80;;;;;;5032993;28;20203;-60
2024/01/02 06:52:29;;;;;;;6.57;6.37;;;7.90;40.80;;;;;;5015452;28;20223;-60
2024/01/02 06:54:54;;;;;;;5.80;5.60;;;7.90;40.80;;;;;;5015510;28;20448;-51
2024/01/02 06:57:20;;;;;;;5.80;5.60;;;7.90;40.80;;;;;;5015685;28;20184;-51
2024/01/02 06:59:46;;;;;;;6.13;5.93;;;8.00;40.90;;;;;;5015453;28;20192;-57
2024/01/02 07:02:13;;;;;;;6.30;6.10;;;8.10;40.70;;;;;;5009424;28;20192;-52
2024/01/02 07:04:38;;;;;;;5.70;5.50;;;8.10;41.00;;;;;;5023952;28;20459;-50
2024/01/02 07:07:04;;;;;;;5.63;5.53;;;8.10;40.90;;;;;;5009303;28;20860;-49
2024/01/02 07:09:30;;;;;;;5.40;5.30;;;8.10;41.00;;;;;;5006849;28;20725;-51
2024/01/02 07:11:55;;;;;;;6.43;6.13;;;8.10;41.00;;;;;;5004747;28;20590;-49
2024/01/02 07:14:21;;;;;;;5.57;5.47;;;8.10;41.00;;;;;;5008968;28;20223;-50
2024/01/02 07:16:47;;;;;;;6.33;6.13;;;8.20;41.10;;;;;;5010603;28;20719;-48
2024/01/02 07:19:13;;;;;;;5.83;5.63;;;8.10;41.00;;;;;;5005708;28;20189;-51
2024/01/02 07:21:39;;;;;;;5.97;5.77;;;8.20;41.10;;;;;;5007651;28;20183;-50
2024/01/02 07:24:08;;;;;;;5.43;5.23;;;8.20;41.20;;;;;;5009120;28;20842;-49
2024/01/02 07:26:34;;;;;;;5.23;5.10;;;8.20;41.20;;;;;;5008449;28;20177;-50
2024/01/02 07:28:59;;;;;;;6.27;5.97;;;8.30;41.10;;;;;;5008222;28;20479;-51
2024/01/02 07:31:26;;;;;;;6.20;6.00;;;8.30;41.20;;;;;;5008218;28;20238;-61
2024/01/02 07:33:51;;;;;;;5.70;5.60;;;8.30;41.20;;;;;;5005867;28;20173;-61
2024/01/02 07:36:18;;;;;;;6.20;5.90;;;8.30;41.10;;;;;;5010300;28;20439;-61
2024/01/02 07:38:43;;;;;;;7.00;6.70;;;8.30;41.60;;;;;;5010575;28;20256;-61
2024/01/02 07:41:09;;;;;;;6.30;6.20;;;8.30;41.10;;;;;;5005293;28;20534;-62
2024/01/02 07:43:34;;;;;;;6.30;6.10;;;8.30;41.10;;;;;;5014200;28;20176;-62
2024/01/02 07:46:00;;;;;;;6.30;6.10;;;8.30;41.10;;;;;;5014320;28;20207;-62
2024/01/02 07:48:26;;;;;;;6.07;5.87;;;8.40;41.20;;;;;;5013737;28;20192;-61
2024/01/02 07:50:51;;;;;;;6.33;6.13;;;8.40;41.20;;;;;;5012815;28;20196;-61
2024/01/02 07:53:19;;;;;;;6.63;6.43;;;8.40;41.20;;;;;;5014206;28;20173;-61
2024/01/02 07:55:47;;;;;;;6.03;5.83;;;8.60;40.80;;;;;;5014056;28;20262;-61
2024/01/02 07:58:12;;;;;;;6.80;6.40;;;8.50;40.50;;;;;;5014289;28;20438;-62
2024/01/02 08:00:38;;;;;;;6.93;6.63;;;8.60;40.80;;;;;;5012037;28;20793;-61
2024/01/02 08:03:04;;;;;;;5.93;5.73;;;8.60;39.90;;;;;;5012250;28;20173;-61
2024/01/02 08:05:29;;;;;;;6.40;6.20;;;8.70;40.50;;;;;;5013149;28;20648;-61
2024/01/02 08:07:55;;;;;;;6.43;6.03;;;8.70;40.90;;;;;;5013996;28;20191;-61
2024/01/02 08:10:20;;;;;;;6.27;6.17;;;8.70;40.40;;;;;;5013534;28;20234;-61
2024/01/02 08:12:46;;;;;;;5.90;5.70;;;8.70;40.60;;;;;;5013834;28;20185;-62
2024/01/02 08:15:12;;;;;;;6.20;6.00;;;8.90;39.90;;;;;;5014082;28;20176;-62
2024/01/02 08:17:37;;;;;;;6.10;5.90;;;8.90;40.50;;;;;;5013879;28;20177;-62
2024/01/02 08:20:04;;;;;;;5.30;5.20;;;8.90;39.30;;;;;;5013637;28;20422;-62
2024/01/02 08:22:30;;;;;;;5.60;5.40;;;9.00;39.50;;;;;;5013933;28;20184;-61
2024/01/02 08:24:56;;;;;;;5.93;5.73;;;9.10;39.90;;;;;;5013838;28;20877;-63
2024/01/02 08:27:25;;;;;;;5.57;5.47;;;9.10;39.60;;;;;;5013907;28;20723;-61
2024/01/02 08:29:51;;;;;;;5.80;5.60;;;9.20;39.30;;;;;;5009248;28;20197;-61
2024/01/02 08:32:17;;;;;;;5.73;5.53;;;9.30;38.80;;;;;;5007978;28;20510;-61
2024/01/02 08:34:43;;;;;;;5.93;5.73;;;9.30;38.50;;;;;;5007598;28;20415;-61
2024/01/02 08:37:09;;;;;;;5.87;5.77;;;9.30;38.80;;;;;;5011291;28;20423;-62
2024/01/02 08:39:35;;;;;;;5.70;5.57;;;9.40;38.40;;;;;;5031245;28;20411;-61
2024/01/02 08:42:01;;;;;;;6.27;6.07;;;9.40;38.00;;;;;;5013069;28;20184;-61
2024/01/02 08:44:26;;;;;;;6.07;5.97;;;9.40;37.70;;;;;;5013761;28;20184;-61
2024/01/02 08:46:52;;;;;;;6.27;6.17;;;9.40;37.30;;;;;;5013512;28;20434;-62
2024/01/02 08:49:17;;;;;;;5.80;5.70;;;9.40;36.70;;;;;;5013563;28;20322;-61
2024/01/02 08:51:43;;;;;;;5.80;5.63;;;9.40;37.00;;;;;;5012984;28;20177;-62
2024/01/02 08:54:09;;;;;;;6.63;6.43;;;9.50;36.50;;;;;;5013765;28;20235;-61
2024/01/02 08:56:34;;;;;;;6.30;6.10;;;9.50;36.60;;;;;;5013668;28;20177;-61
2024/01/02 08:59:00;;;;;;;5.83;5.73;;;9.50;36.50;;;;;;5013782;28;20219;-61
2024/01/02 09:01:26;;;;;;;5.80;5.60;;;9.50;36.50;;;;;;5015734;28;20180;-62
2024/01/02 09:03:53;;;;;;;5.50;5.40;;;9.60;36.20;;;;;;5000972;28;20176;-61
2024/01/02 09:06:19;;;;;;;7.03;6.83;;;9.60;36.30;;;;;;5017274;28;20907;-61
2024/01/02 09:08:45;;;;;;;6.30;6.10;;;9.60;36.80;;;;;;5016993;28;20421;-61
2024/01/02 09:11:12;;;;;;;5.70;5.50;;;9.60;36.30;;;;;;5016638;28;20501;-62
2024/01/02 09:13:38;;;;;;;5.90;5.70;;;9.60;36.40;;;;;;5016909;28;20426;-61
2024/01/02 09:16:04;;;;;;;5.77;5.67;;;9.60;37.00;;;;;;5016783;28;20706;-61
2024/01/02 09:18:30;;;;;;;6.63;6.33;;;9.70;36.00;;;;;;5012778;28;20937;-60
2024/01/02 09:20:57;;;;;;;6.17;5.97;;;9.70;36.00;;;;;;5010441;28;20420;-62
2024/01/02 09:23:22;;;;;;;6.50;6.30;;;9.70;35.70;;;;;;5010016;28;20189;-61
2024/01/02 09:25:50;;;;;;;6.50;6.33;;;9.80;35.60;;;;;;5014519;28;20424;-60
2024/01/02 09:28:17;;;;;;;5.97;5.77;;;9.80;35.40;;;;;;5028177;28;20185;-60
2024/01/02 09:30:43;;;;;;;6.30;6.10;;;9.80;35.60;;;;;;5013835;28;20549;-60
2024/01/02 09:33:09;;;;;;;6.50;6.30;;;9.80;36.00;;;;;;5016649;28;20830;-60
2024/01/02 09:35:36;;;;;;;6.30;6.10;;;9.80;35.40;;;;;;5016584;28;20435;-60
2024/01/02 09:38:04;;;;;;;6.00;5.80;;;9.90;35.70;;;;;;5016620;28;20173;-61
2024/01/02 09:40:55;;;;;;;6.43;6.23;;;9.90;34.90;;;;;;5016155;28;20445;-61
2024/01/02 09:43:39;;;;;;;5.90;5.70;;;9.90;35.10;;;;;;5016629;28;20434;-60
2024/01/02 09:46:26;;;;;;;5.60;5.50;;;9.90;35.50;;;;;;5016429;28;20419;-60
2024/01/02 09:48:54;;;;;;;6.00;5.60;;;10.00;34.30;;;;;;5016436;28;20422;-61
2024/01/02 09:51:58;;;;;;;6.03;5.93;;;10.00;34.20;;;;;;5016102;28;20510;-61
2024/01/02 09:54:55;;;;;;;6.43;6.23;;;10.00;34.30;;;;;;5011381;28;20418;-61
2024/01/02 09:57:58;;;;;;;6.20;6.00;;;10.00;34.30;;;;;;5016337;28;20423;-62
2024/01/02 10:01:00;;;;;;;6.40;6.20;;;10.00;33.80;;;;;;5015315;28;20419;-61
2024/01/02 10:03:36;;;;;;;6.27;6.17;;;10.10;33.70;;;;;;5010171;28;20424;-62
2024/01/02 10:06:01;;;;;;;6.63;6.43;;;10.10;34.20;;;;;;5011042;28;20407;-61
2024/01/02 10:08:44;;;;;;;6.27;6.17;;;10.10;33.80;;;;;;5012119;28;20466;-62
2024/01/02 10:11:41;;;;;;;6.60;6.50;;;10.20;33.40;;;;;;5014957;28;20208;-62
2024/01/02 10:14:14;;;;;;;6.93;6.73;;;10.20;33.50;;;;;;5015925;28;21046;-61
2024/01/02 10:17:09;;;;;;;7.33;7.13;;;10.20;33.10;;;;;;5015965;28;20426;-61
2024/01/02 10:20:06;;;;;;;6.47;6.27;;;10.20;34.00;;;;;;5033687;28;20426;-61
2024/01/02 10:23:02;;;;;;;7.00;6.80;;;10.20;33.00;;;;;;5015643;28;20428;-61
2024/01/02 10:25:29;;;;;;;7.00;6.80;;;10.30;33.00;;;;;;5014330;28;20426;-62
2024/01/02 10:28:18;;;;;;;6.83;6.63;;;10.30;32.80;;;;;;5014662;28;20419;-61
2024/01/02 10:31:18;;;;;;;6.80;6.50;;;10.30;32.60;;;;;;5015010;28;20474;-60
2024/01/02 10:33:51;;;;;;;6.37;6.20;;;10.40;32.70;;;;;;5002442;28;20419;-60
2024/01/02 10:36:21;;;;;;;6.60;6.40;;;10.40;32.50;;;;;;5015584;28;20431;-60
2024/01/02 10:39:09;;;;;;;5.83;5.73;;;10.40;33.30;;;;;;5015474;28;20418;-60
2024/01/02 10:42:03;;;;;;;5.90;5.80;;;10.40;32.90;;;;;;5014902;28;20916;-60
2024/01/02 10:44:41;;;;;;;5.87;5.67;;;10.40;32.20;;;;;;5009157;28;20438;-60
2024/01/02 10:47:25;;;;;;;6.60;6.40;;;10.40;32.20;;;;;;5029891;28;20411;-61
2024/01/02 10:49:52;;;;;;;6.37;6.17;;;10.50;32.60;;;;;;5014312;28;20471;-60
2024/01/02 10:52:43;;;;;;;6.00;5.80;;;10.50;31.90;;;;;;5015108;28;20447;-60
2024/01/02 10:55:23;;;;;;;6.27;6.07;;;10.50;32.60;;;;;;5015118;28;20438;-62
2024/01/02 10:57:52;;;;;;;6.27;6.13;;;10.50;32.80;;;;;;5014957;28;20974;-60
2024/01/02 11:00:22;;;;;;;5.97;5.87;;;10.50;32.00;;;;;;5014667;28;20427;-60
2024/01/02 11:02:53;;;;;;;6.83;6.63;;;10.60;32.50;;;;;;5014755;28;20477;-60
2024/01/02 11:05:39;;;;;;;6.20;6.10;;;10.60;32.10;;;;;;5014585;28;20434;-60
2024/01/02 11:08:16;;;;;;;6.93;6.73;;;10.60;32.00;;;;;;5014593;28;20788;-60
2024/01/02 11:11:00;;;;;;;6.83;6.63;;;10.70;32.20;;;;;;5014260;28;20478;-50
2024/01/02 11:13:26;;;;;;;7.00;6.80;;;10.70;32.10;;;;;;5014735;28;20430;-50
2024/01/02 11:16:15;;;;;;;6.37;6.17;;;10.70;32.20;;;;;;5014538;28;20432;-47
2024/01/02 11:18:44;;;;;;;6.27;6.17;;;10.70;31.90;;;;;;5014626;28;20423;-48
2024/01/02 11:21:15;;;;;;;6.93;6.73;;;10.80;32.20;;;;;;5006035;28;20687;-47
2024/01/02 11:23:46;;;;;;;6.73;6.53;;;10.80;30.90;;;;;;5013697;28;20423;-48
2024/01/02 11:26:29;;;;;;;6.50;6.30;;;10.80;31.40;;;;;;5014784;28;20461;-50
2024/01/02 11:29:03;;;;;;;6.80;6.60;;;10.80;31.30;;;;;;5014474;28;20522;-50
2024/01/02 11:31:34;;;;;;;6.20;6.10;;;10.80;31.00;;;;;;5014003;28;20468;-50
2024/01/02 11:34:21;;;;;;;7.00;6.70;;;10.80;30.70;;;;;;5014170;28;20442;-48
2024/01/02 11:36:50;;;;;;;6.20;6.00;;;10.90;31.50;;;;;;5014141;28;21035;-49
2024/01/02 11:39:18;;;;;;;6.63;6.43;;;10.90;31.60;;;;;;5014441;28;20578;-50
2024/01/02 11:42:25;;;;;;;6.33;6.20;;;10.90;30.30;;;;;;5013706;28;20415;-47
2024/01/02 11:45:00;;;;;;;6.70;6.50;;;11.00;31.10;;;;;;4994609;28;20904;-50
2024/01/02 11:47:48;;;;;;;6.60;6.40;;;11.10;30.10;;;;;;5014335;28;20411;-51
2024/01/02 11:50:15;;;;;;;6.50;6.30;;;11.10;30.60;;;;;;5005936;28;20464;-50
2024/01/02 11:53:07;;;;;;;6.60;6.40;;;11.10;30.80;;;;;;5014101;28;20427;-48
2024/01/02 11:55:57;;;;;;;7.43;7.23;;;11.10;30.70;;;;;;5014824;28;20491;-47
2024/01/02 11:58:48;;;;;;;7.30;7.10;;;11.20;30.50;;;;;;5014167;28;20418;-49
2024/01/02 12:01:59;;;;;;;7.47;7.27;;;11.20;30.20;;;;;;5013610;28;20930;-49
2024/01/02 12:05:04;;;;;;;6.47;6.30;;;11.20;30.20;;;;;;5013478;28;20419;-50
2024/01/02 12:07:32;;;;;;;7.97;7.77;;;11.20;30.60;;;;;;5014142;28;20752;-50
2024/01/02 12:09:59;;;;;;;7.20;7.00;;;11.20;31.60;;;;;;5013501;28;20853;-47
2024/01/02 12:12:46;;;;;;;7.17;6.97;;;11.20;30.90;;;;;;5012022;28;20416;-49
2024/01/02 12:15:15;;;;;;;7.87;7.67;;;11.20;31.00;;;;;;5013723;28;20415;-48
2024/01/02 12:17:44;;;;;;;7.70;7.50;;;11.10;31.40;;;;;;5013948;28;20785;-47
2024/01/02 12:20:11;;;;;;;7.17;6.97;;;11.10;31.70;;;;;;5012009;28;20746;-48
2024/01/02 12:22:37;;;;;;;7.43;7.23;;;11.10;31.40;;;;;;5024019;28;20916;-50
2024/01/02 12:25:06;;;;;;;7.57;7.37;;;11.10;31.90;;;;;;5013455;28;20506;-50
2024/01/02 12:27:34;;;;;;;6.90;6.70;;;11.10;32.30;;;;;;5013862;28;20419;-52
2024/01/02 12:30:04;;;;;;;6.90;6.70;;;11.00;32.40;;;;;;5013096;28;20458;-49
2024/01/02 12:32:39;;;;;;;7.20;6.90;;;11.00;32.40;;;;;;5013632;28;20943;-51
2024/01/02 12:35:13;;;;;;;6.33;6.10;;;11.00;33.40;;;;;;5015801;28;20450;-50
2024/01/02 12:37:59;;;;;;;6.50;6.30;;;10.90;33.30;;;;;;5017869;28;20864;-50
2024/01/02 12:40:31;;;;;;;6.03;5.83;;;10.80;33.30;;;;;;5010862;28;20411;-49
2024/01/02 12:46:41;;;;;;;6.17;5.97;;;10.80;34.40;;;;;;5034490;28;20998;-48
2024/01/02 12:49:30;;;;;;;6.30;6.10;;;10.80;34.70;;;;;;5008800;28;20809;-47
2024/01/02 12:52:03;;;;;;;5.87;5.70;;;10.80;34.50;;;;;;5015513;28;20417;-49
2024/01/02 12:54:30;;;;;;;5.97;5.87;;;10.70;35.00;;;;;;5016261;28;20419;-51
2024/01/02 12:57:02;;;;;;;6.53;6.33;;;10.70;34.50;;;;;;5017223;28;20773;-51
2024/01/02 12:59:30;;;;;;;6.73;6.53;;;10.70;34.80;;;;;;5017267;28;20514;-51
2024/01/02 13:01:57;;;;;;;6.43;6.23;;;10.70;35.20;;;;;;5016563;28;20419;-48
2024/01/02 13:04:24;;;;;;;6.20;6.00;;;10.70;34.90;;;;;;5017426;28;20420;-61
2024/01/02 13:06:51;;;;;;;6.20;6.00;;;10.70;35.10;;;;;;5017376;28;20486;-60
2024/01/02 13:09:18;;;;;;;7.17;6.97;;;10.70;35.00;;;;;;5017079;28;20427;-60
2024/01/02 13:11:44;;;;;;;6.17;5.90;;;10.70;35.10;;;;;;5016482;28;20510;-60